createdAt,value
2023-02-22T00:00:48.451Z,101134.22
2023-02-22T00:03:28.139Z,101133.31
2023-02-22T00:05:59.696Z,101153.16
2023-02-22T00:08:30.600Z,101153.19
2023-02-22T00:10:58.686Z,101168.72
2023-02-22T00:13:25.741Z,101197.22
2023-02-22T00:15:52.463Z,101205.88
2023-02-22T00:18:20.044Z,101138.56
2023-02-22T00:20:46.971Z,101114.41
2023-02-22T00:23:20.203Z,101115.28
2023-02-22T00:25:49.922Z,101138.56
2023-02-22T00:28:20.166Z,101141.16
2023-02-22T00:30:54.470Z,101104.06
2023-02-22T00:33:27.895Z,101087.69
2023-02-22T00:35:59.857Z,101119.59
2023-02-22T00:38:26.971Z,101156.66
2023-02-22T00:40:53.626Z,101142.00
2023-02-22T00:43:21.948Z,101086.81
2023-02-22T00:46:11.230Z,101083.38
2023-02-22T00:48:55.843Z,101097.16
2023-02-22T00:51:48.959Z,101067.84
2023-02-22T00:54:20.243Z,101116.97
2023-02-22T00:56:47.114Z,101131.63
2023-02-22T00:59:13.950Z,101143.72
2023-02-22T01:01:41.050Z,101129.94
2023-02-22T01:04:07.791Z,101136.81
2023-02-22T01:06:34.834Z,101153.19
2023-02-22T01:09:02.410Z,101148.84
2023-02-22T01:11:29.217Z,101150.59
2023-02-22T01:13:57.803Z,101133.34
2023-02-22T01:16:24.489Z,101102.28
2023-02-22T01:18:53.933Z,101120.41
2023-02-22T01:21:20.843Z,101106.63
2023-02-22T01:23:47.641Z,101138.53
2023-02-22T01:26:14.283Z,101131.59
2023-02-22T01:28:40.933Z,101105.75
2023-02-22T01:31:08.142Z,101129.88
2023-02-22T01:33:34.935Z,101097.13
2023-02-22T01:36:01.644Z,101079.88
2023-02-22T01:38:29.589Z,101130.69
2023-02-22T01:40:56.999Z,101061.72
2023-02-22T01:43:32.395Z,101094.47
2023-02-22T01:46:02.254Z,101150.53
2023-02-22T01:48:52.122Z,101121.22
2023-02-22T01:51:27.255Z,101119.50
2023-02-22T01:54:01.470Z,101087.56
2023-02-22T01:56:32.006Z,101100.53
2023-02-22T01:59:07.054Z,101138.44
2023-02-22T02:01:36.229Z,101061.75
2023-02-22T02:04:10.653Z,101119.50
2023-02-22T02:06:38.949Z,101060.88
2023-02-22T02:09:37.746Z,101102.25
2023-02-22T02:12:07.352Z,101076.38
2023-02-22T02:14:41.955Z,101040.19
2023-02-22T02:17:10.975Z,101075.50
2023-02-22T02:20:14.141Z,101124.63
2023-02-22T02:23:25.579Z,101061.66
2023-02-22T02:26:22.211Z,101032.38
2023-02-22T02:29:29.307Z,101063.38
2023-02-22T02:32:23.113Z,101124.59
2023-02-22T02:35:12.387Z,101075.47
2023-02-22T02:37:57.797Z,101114.25
2023-02-22T02:40:49.272Z,101116.84
2023-02-22T02:43:42.108Z,101075.47
2023-02-22T02:46:18.295Z,101115.13
2023-02-22T02:49:01.061Z,101054.78
2023-02-22T02:51:36.553Z,101014.28
2023-02-22T02:54:04.850Z,101078.00
2023-02-22T02:56:32.032Z,101012.53
2023-02-22T02:58:58.774Z,101030.63
2023-02-22T03:01:40.079Z,101103.88
2023-02-22T03:04:30.994Z,101072.84
2023-02-22T03:07:06.986Z,101091.78
2023-02-22T03:09:54.908Z,101087.44
2023-02-22T03:12:49.862Z,101090.03
2023-02-22T03:15:32.568Z,101034.03
2023-02-22T03:18:47.493Z,101088.31
2023-02-22T03:21:27.267Z,101083.13
2023-02-22T03:24:07.041Z,101019.38
2023-02-22T03:26:43.616Z,101027.09
2023-02-22T03:29:12.988Z,100989.22
2023-02-22T03:31:45.500Z,101077.91
2023-02-22T03:34:24.169Z,101034.84
2023-02-22T03:36:58.939Z,101034.81
2023-02-22T03:39:31.260Z,101048.63
2023-02-22T03:42:05.197Z,101046.03
2023-02-22T03:44:33.301Z,100984.00
2023-02-22T03:47:06.622Z,100953.84
2023-02-22T03:49:49.641Z,101031.34
2023-02-22T03:52:17.395Z,100994.31
2023-02-22T03:54:44.630Z,100995.16
2023-02-22T03:57:19.621Z,101052.84
2023-02-22T03:59:47.013Z,100956.34
2023-02-22T04:02:14.261Z,101005.44
2023-02-22T04:04:43.011Z,100974.41
2023-02-22T04:07:09.614Z,101019.22
2023-02-22T04:09:36.237Z,100981.28
2023-02-22T04:12:05.082Z,101007.13
2023-02-22T04:14:42.923Z,100972.72
2023-02-22T04:17:10.428Z,100982.19
2023-02-22T04:19:37.139Z,100994.28
2023-02-22T04:22:03.748Z,101010.66
2023-02-22T04:24:31.375Z,101014.97
2023-02-22T04:26:58.048Z,101038.19
2023-02-22T04:29:24.939Z,101012.31
2023-02-22T04:31:52.182Z,101037.31
2023-02-22T04:34:24.076Z,101020.09
2023-02-22T04:36:53.465Z,100992.50
2023-02-22T04:39:21.631Z,101010.59
2023-02-22T04:41:50.118Z,100969.19
2023-02-22T04:44:16.956Z,100980.38
2023-02-22T04:46:43.842Z,100945.09
2023-02-22T04:49:13.689Z,100938.19
2023-02-22T04:51:41.317Z,101002.78
2023-02-22T04:54:08.621Z,101000.19
2023-02-22T04:56:35.256Z,100976.06
2023-02-22T04:59:01.901Z,100982.97
2023-02-22T05:01:38.466Z,100980.44
2023-02-22T05:04:06.720Z,101015.72
2023-02-22T05:06:33.372Z,100980.38
2023-02-22T05:09:00.129Z,100974.38
2023-02-22T05:11:26.611Z,101001.94
2023-02-22T05:13:53.230Z,100990.72
2023-02-22T05:16:19.917Z,100958.00
2023-02-22T05:18:46.588Z,100990.75
2023-02-22T05:21:13.708Z,100972.66
2023-02-22T05:23:40.321Z,101004.53
2023-02-22T05:26:08.403Z,100989.03
2023-02-22T05:28:36.289Z,100989.91
2023-02-22T05:31:03.060Z,100995.09
2023-02-22T05:33:29.918Z,100997.66
2023-02-22T05:35:56.521Z,100992.50
2023-02-22T05:38:23.498Z,101014.03
2023-02-22T05:40:50.527Z,100977.84
2023-02-22T05:43:17.340Z,100978.69
2023-02-22T05:45:44.035Z,100972.69
2023-02-22T05:48:10.526Z,100993.34
2023-02-22T05:50:37.098Z,100974.38
2023-02-22T05:53:04.090Z,100989.88
2023-02-22T05:55:30.980Z,100979.53
2023-02-22T05:57:57.642Z,100970.00
2023-02-22T06:00:30.127Z,100986.38
2023-02-22T06:03:08.633Z,100976.03
2023-02-22T06:05:36.064Z,100981.25
2023-02-22T06:08:04.093Z,100984.69
2023-02-22T06:10:30.986Z,100960.56
2023-02-22T06:12:58.902Z,100974.34
2023-02-22T06:15:27.362Z,100967.47
2023-02-22T06:17:55.860Z,100993.31
2023-02-22T06:20:24.167Z,100987.28
2023-02-22T06:22:52.158Z,100990.75
2023-02-22T06:25:22.170Z,100987.28
2023-02-22T06:27:48.779Z,100965.72
2023-02-22T06:30:17.112Z,100963.16
2023-02-22T06:32:43.918Z,100975.19
2023-02-22T06:35:10.582Z,100972.63
2023-02-22T06:37:38.678Z,100993.34
2023-02-22T06:40:06.176Z,100993.31
2023-02-22T06:42:33.033Z,100985.56
2023-02-22T06:44:59.782Z,100982.97
2023-02-22T06:47:26.496Z,100995.03
2023-02-22T06:49:57.567Z,100982.09
2023-02-22T06:52:24.258Z,100977.81
2023-02-22T06:54:51.764Z,101013.97
2023-02-22T06:57:18.532Z,100990.72
2023-02-22T06:59:45.132Z,100987.28
2023-02-22T07:02:12.399Z,101013.13
2023-02-22T07:04:40.419Z,101013.13
2023-02-22T07:07:09.026Z,101015.69
2023-02-22T07:09:35.625Z,100992.47
2023-02-22T07:12:02.400Z,101011.38
2023-02-22T07:14:28.925Z,100995.06
2023-02-22T07:16:55.501Z,101006.22
2023-02-22T07:19:22.070Z,101015.69
2023-02-22T07:21:48.689Z,101001.94
2023-02-22T07:24:15.268Z,100994.13
2023-02-22T07:26:42.957Z,101018.25
2023-02-22T07:29:11.307Z,100968.28
2023-02-22T07:31:39.063Z,100989.84
2023-02-22T07:34:06.717Z,101015.66
2023-02-22T07:36:33.540Z,100988.09
2023-02-22T07:39:00.137Z,100983.75
2023-02-22T07:41:26.928Z,100988.06
2023-02-22T07:43:53.589Z,101000.09
2023-02-22T07:46:20.232Z,100983.75
2023-02-22T07:48:46.974Z,100988.91
2023-02-22T07:51:16.894Z,101010.41
2023-02-22T07:53:43.896Z,100996.66
2023-02-22T07:56:10.605Z,101001.81
2023-02-22T07:58:37.389Z,100990.63
2023-02-22T08:01:04.475Z,101027.69
2023-02-22T08:03:36.759Z,101003.59
2023-02-22T08:06:05.757Z,101016.53
2023-02-22T08:08:32.548Z,101036.38
2023-02-22T08:10:59.107Z,101026.00
2023-02-22T08:13:25.709Z,101041.53
2023-02-22T08:15:53.914Z,101051.03
2023-02-22T08:18:21.927Z,101052.75
2023-02-22T08:20:49.973Z,101051.88
2023-02-22T08:23:19.059Z,101050.16
2023-02-22T08:25:47.341Z,101034.59
2023-02-22T08:28:16.768Z,101014.75
2023-02-22T08:30:43.938Z,101022.41
2023-02-22T08:33:16.809Z,101021.56
2023-02-22T08:35:43.870Z,101039.66
2023-02-22T08:38:26.978Z,101032.75
2023-02-22T08:40:54.036Z,101032.75
2023-02-22T08:43:22.011Z,101035.31
2023-02-22T08:45:49.421Z,101041.28
2023-02-22T08:48:16.082Z,101045.59
2023-02-22T08:50:44.247Z,101048.19
2023-02-22T08:53:13.540Z,101044.69
2023-02-22T08:55:41.787Z,101023.13
2023-02-22T08:58:12.475Z,101040.31
2023-02-22T09:00:40.600Z,101038.53
2023-02-22T09:03:10.456Z,101035.97
2023-02-22T09:05:37.079Z,101017.84
2023-02-22T09:08:04.144Z,101049.78
2023-02-22T09:10:33.051Z,101030.81
2023-02-22T09:13:01.377Z,101052.38
2023-02-22T09:15:28.760Z,101039.47
2023-02-22T09:17:56.145Z,101034.28
2023-02-22T09:20:24.434Z,101047.19
2023-02-22T09:22:51.092Z,101025.63
2023-02-22T09:25:20.594Z,101042.81
2023-02-22T09:27:52.207Z,101054.91
2023-02-22T09:30:28.280Z,101047.09
2023-02-22T09:32:58.094Z,101047.06
2023-02-22T09:35:27.509Z,101046.19
2023-02-22T09:37:59.001Z,101017.72
2023-02-22T09:40:33.761Z,101051.22
2023-02-22T09:43:40.634Z,101052.09
2023-02-22T09:46:38.371Z,101054.66
2023-02-22T09:49:25.383Z,101041.66
2023-02-22T09:52:07.911Z,101047.63
2023-02-22T09:55:06.906Z,101052.78
2023-02-22T09:57:43.824Z,101039.88
2023-02-22T10:00:19.071Z,101050.94
2023-02-22T10:03:07.007Z,101054.38
2023-02-22T10:05:37.850Z,101071.56
2023-02-22T10:08:10.649Z,101055.97
2023-02-22T10:10:41.288Z,101057.66
2023-02-22T10:13:24.172Z,101054.97
2023-02-22T10:16:10.342Z,101043.69
2023-02-22T10:19:04.412Z,101055.53
2023-02-22T10:21:52.615Z,101057.16
2023-02-22T10:24:53.409Z,101038.97
2023-02-22T10:27:31.999Z,101036.38
2023-02-22T10:30:25.070Z,101056.09
2023-02-22T10:33:20.100Z,101049.97
2023-02-22T10:35:47.478Z,101041.38
2023-02-22T10:38:35.520Z,101060.38
2023-02-22T10:41:08.521Z,101051.66
2023-02-22T10:43:40.845Z,101034.31
2023-02-22T10:46:09.820Z,101020.56
2023-02-22T10:48:40.186Z,101052.38
2023-02-22T10:51:13.620Z,101049.81
2023-02-22T10:53:40.452Z,101020.47
2023-02-22T10:56:29.564Z,101013.63
2023-02-22T10:59:02.709Z,101043.81
2023-02-22T11:01:38.011Z,101047.16
2023-02-22T11:04:20.043Z,101056.66
2023-02-22T11:06:49.933Z,101014.50
2023-02-22T11:09:24.329Z,101047.13
2023-02-22T11:12:14.686Z,101007.56
2023-02-22T11:14:42.717Z,101029.06
2023-02-22T11:17:31.577Z,101020.53
2023-02-22T11:20:18.142Z,101001.47
2023-02-22T11:22:44.820Z,101027.53
2023-02-22T11:25:25.004Z,101011.19
2023-02-22T11:27:52.540Z,101028.44
2023-02-22T11:33:38.390Z,101052.72
2023-02-22T11:37:14.814Z,101065.63
2023-02-22T11:40:37.339Z,100998.47
2023-02-22T11:43:16.877Z,101046.53
2023-02-22T11:46:22.485Z,101043.00
2023-02-22T11:49:00.813Z,101062.84
2023-02-22T11:51:46.641Z,101057.63
2023-02-22T11:54:22.377Z,101065.50
2023-02-22T12:04:23.996Z,101062.81
2023-02-22T12:07:09.511Z,101055.00
2023-02-22T12:09:54.870Z,101061.09
2023-02-22T12:12:37.853Z,101045.63
2023-02-22T12:15:25.355Z,101063.66
2023-02-22T12:18:17.449Z,101030.00
2023-02-22T12:21:09.276Z,101008.47
2023-02-22T12:28:40.504Z,101035.06
2023-02-22T12:32:25.114Z,101006.66
2023-02-22T12:35:58.440Z,101047.94
2023-02-22T12:38:44.436Z,101015.25
2023-02-22T12:41:38.089Z,100997.88
2023-02-22T12:45:09.848Z,101039.78
2023-02-22T12:47:45.879Z,101023.25
2023-02-22T12:50:27.476Z,101021.44
2023-02-22T12:53:06.739Z,101052.28
2023-02-22T12:55:56.702Z,101056.59
2023-02-22T12:59:01.901Z,101052.28
2023-02-22T13:07:24.115Z,101056.63
2023-02-22T13:14:33.369Z,101057.41
2023-02-22T13:19:27.802Z,101056.47
2023-02-22T13:22:20.073Z,101015.03
2023-02-22T13:26:32.539Z,101050.19
2023-02-22T13:41:01.728Z,101043.09
2023-02-22T13:43:58.515Z,101034.47
2023-02-22T13:47:22.648Z,101051.59
2023-02-22T13:50:18.315Z,100998.16
2023-02-22T13:52:46.096Z,101011.91
2023-02-22T13:55:35.980Z,101001.50
2023-02-22T13:58:26.968Z,101001.53
2023-02-22T14:01:01.242Z,101012.53
2023-02-22T14:03:46.449Z,101027.06
2023-02-22T14:22:08.815Z,101003.50
2023-02-22T14:25:09.844Z,101004.56
2023-02-22T14:27:42.603Z,101019.50
2023-02-22T14:30:26.208Z,101029.19
2023-02-22T14:32:53.626Z,101019.16
2023-02-22T14:36:38.636Z,101070.00
2023-02-22T14:39:27.455Z,101052.09
2023-02-22T14:54:17.782Z,101064.31
2023-02-22T14:57:32.380Z,101066.00
2023-02-22T15:04:01.986Z,101033.53
2023-02-22T16:13:59.071Z,101033.94
2023-02-22T18:37:22.525Z,101155.22
2023-02-22T18:39:55.562Z,101194.91
2023-02-22T18:42:25.623Z,101151.88
2023-02-22T18:48:05.286Z,101181.19
2023-02-22T18:50:41.454Z,101169.09
2023-02-22T19:12:27.225Z,101200.34
2023-02-22T19:15:01.484Z,101219.31
2023-02-22T20:52:20.569Z,101252.53
2023-02-22T20:55:21.898Z,101283.59
2023-02-22T20:57:50.910Z,101238.72
2023-02-22T21:00:32.183Z,101265.47
2023-02-22T21:03:25.267Z,101254.28
2023-02-22T21:06:23.698Z,101254.28
2023-02-22T21:09:52.161Z,101284.50
2023-02-22T21:16:21.927Z,101252.56
2023-02-22T21:19:08.525Z,101249.97
2023-02-22T21:21:42.233Z,101256.88
2023-02-22T21:24:22.087Z,101294.00
2023-02-22T21:26:58.061Z,101264.69
2023-02-22T21:29:33.816Z,101271.59
2023-02-22T21:32:27.026Z,101290.59
2023-02-22T21:35:25.492Z,101338.06
2023-02-22T21:37:57.221Z,101288.84
2023-02-22T21:52:20.740Z,101307.84
2023-02-22T22:03:11.160Z,101302.66
2023-02-22T22:05:52.952Z,101318.22
2023-02-22T22:09:43.923Z,101356.22
2023-02-22T22:12:13.521Z,101275.91
2023-02-22T22:14:56.991Z,101305.25
2023-02-22T22:17:45.829Z,101313.03
2023-02-22T22:24:10.945Z,101289.69
2023-02-22T22:26:51.892Z,101285.41
2023-02-22T22:29:37.494Z,101289.69
2023-02-22T22:32:06.111Z,101313.88
2023-02-22T22:34:38.192Z,101287.97
2023-02-22T22:37:30.448Z,101263.78
2023-02-22T22:40:05.419Z,101334.63
2023-02-22T22:42:32.514Z,101320.78
2023-02-22T22:45:16.504Z,101323.38
2023-02-22T22:47:50.630Z,101287.09
2023-02-22T22:50:20.100Z,101295.72
2023-02-22T22:52:53.937Z,101277.59
2023-02-22T22:56:19.332Z,101328.53
2023-02-22T22:59:09.822Z,101290.50
2023-02-22T23:01:45.021Z,101310.38
2023-02-22T23:04:17.359Z,101295.72
2023-02-22T23:06:46.730Z,101313.81
2023-02-22T23:09:24.310Z,101353.56
2023-02-22T23:11:56.928Z,101366.53
2023-02-22T23:14:31.523Z,101344.03
2023-02-22T23:17:03.973Z,101342.31
2023-02-22T23:19:35.034Z,101360.47
2023-02-22T23:22:11.791Z,101384.69
2023-02-22T23:24:49.277Z,101294.75
2023-02-22T23:27:24.176Z,101359.59
2023-02-22T23:29:51.518Z,101318.06
2023-02-22T23:32:18.508Z,101292.19
2023-02-22T23:34:48.348Z,101337.94
2023-02-22T23:37:16.072Z,101344.91
2023-02-22T23:39:51.743Z,101352.63
2023-02-22T23:42:19.027Z,101329.25
2023-02-22T23:44:48.086Z,101351.75
